Aérodrome :
LOGIN :

S'inscrire | Disclaimer

   EN    FR    IT 

 










Légende :    VFR   VFR Marginal   IFR   IFR Intensif   IFR Très Intensif
Visi : 
Plafond : 
>= 8 km
>= 3000ft
5 à 8 km
1000 à 3000 ft
1500m à 5 km
500 à 1000 ft
800 à 1500m
200 à 500 ft
< 800m
< 200 ft
Symboles :   Orages  Brouillard  Fortes neiges  Fortes précipitations  Vent > 20 kt
SIGMETs :   Divers  Orages  Givrage  Turbulence  Onde Orograph.  Cendres Volcan.






- Altitude de l'aérodrome : 461 ft
- Code IATA : WIE


ETOU - Wiesbaden Army

DERNIER METAR :
  • 220056Z AUTO 00000KT 9999 CLR 02/M01 A3033 RMK AO2 SLP279 T00211010

METARs EXPIRÉS :
  • 212356Z AUTO 00000KT 9999 CLR 03/M01 A3034 RMK AO2 SLP282 T00271011 10060 20017 57013
  • 212256Z AUTO 00000KT 9999 FEW160 FEW180 03/M01 A3036 RMK AO2 SLP289 T00331011 400890016 $

TAF AMD TAF ETOU
Valide du 21 à 18h jusqu'au 22 à 18h UTC


211840Z 2118/2218 26010G15KT 9999 FEW040 QNH3034INS
BECMG 2120/2121 23010KT 9999 BKN015 QNH3026INS
BECMG 2212/2213 22010G20KT 9000 -RA BKN025 OVC030 QNH3023INS TX08/2212Z TN03/2204Z LAST NO AMDS AFT 2119 NEXT 2404



MET'MAP, la Météo Aéronautique d'un coup d'oeil ! - Copyright ORBIFLY Décembre 2007 - Disclaimer

ORBIFLY MET'MAP TEAM :

Programmation & Développement : Alexandra Zaïnal
Sur une idée originale de : Baudouin d'Aumeries
Assistance à la programmation : Marc-Olivier Méhu
Soutien technique & logistique : Manuel Goepfert

Contact : metmap@orbifly.com




SOURCES & CREDITS :

   NOAA